sensor_id;sensor_type;location;lat;lon;timestamp;P1;durP1;ratioP1;P2;durP2;ratioP2
26034;SDS011;13809;48.632;11.576;2022-09-24T00:00:03;5.43;;;4.93;;
26034;SDS011;13809;48.632;11.576;2022-09-24T00:05:09;6.27;;;5.77;;
26034;SDS011;13809;48.632;11.576;2022-09-24T00:10:12;5.90;;;5.40;;
26034;SDS011;13809;48.632;11.576;2022-09-24T00:15:15;7.33;;;6.53;;
26034;SDS011;13809;48.632;11.576;2022-09-24T00:20:19;6.00;;;5.50;;
26034;SDS011;13809;48.632;11.576;2022-09-24T00:25:23;7.93;;;6.60;;
26034;SDS011;13809;48.632;11.576;2022-09-24T00:30:43;7.10;;;6.40;;
26034;SDS011;13809;48.632;11.576;2022-09-24T00:35:48;7.17;;;6.40;;
26034;SDS011;13809;48.632;11.576;2022-09-24T00:40:52;6.80;;;6.20;;
26034;SDS011;13809;48.632;11.576;2022-09-24T00:45:56;6.27;;;5.70;;
26034;SDS011;13809;48.632;11.576;2022-09-24T00:51:08;5.93;;;5.33;;
26034;SDS011;13809;48.632;11.576;2022-09-24T00:56:18;6.53;;;6.00;;
26034;SDS011;13809;48.632;11.576;2022-09-24T01:01:22;6.23;;;5.73;;
26034;SDS011;13809;48.632;11.576;2022-09-24T01:06:28;5.93;;;5.43;;
26034;SDS011;13809;48.632;11.576;2022-09-24T01:11:35;5.13;;;4.63;;
26034;SDS011;13809;48.632;11.576;2022-09-24T01:16:49;6.63;;;5.37;;
26034;SDS011;13809;48.632;11.576;2022-09-24T01:22:02;5.30;;;4.80;;
26034;SDS011;13809;48.632;11.576;2022-09-24T01:27:10;5.67;;;5.10;;
26034;SDS011;13809;48.632;11.576;2022-09-24T01:32:18;5.33;;;4.93;;
26034;SDS011;13809;48.632;11.576;2022-09-24T01:37:32;4.57;;;4.17;;
26034;SDS011;13809;48.632;11.576;2022-09-24T01:42:39;5.53;;;4.70;;
26034;SDS011;13809;48.632;11.576;2022-09-24T01:47:47;5.07;;;4.17;;
26034;SDS011;13809;48.632;11.576;2022-09-24T01:52:51;4.57;;;4.20;;
26034;SDS011;13809;48.632;11.576;2022-09-24T01:57:58;5.87;;;4.90;;
26034;SDS011;13809;48.632;11.576;2022-09-24T02:03:07;4.97;;;4.57;;
26034;SDS011;13809;48.632;11.576;2022-09-24T02:08:15;4.97;;;4.57;;
26034;SDS011;13809;48.632;11.576;2022-09-24T02:13:21;5.20;;;4.63;;
26034;SDS011;13809;48.632;11.576;2022-09-24T02:18:30;5.47;;;4.97;;
26034;SDS011;13809;48.632;11.576;2022-09-24T02:23:37;5.73;;;5.23;;
26034;SDS011;13809;48.632;11.576;2022-09-24T02:28:44;5.47;;;4.97;;
26034;SDS011;13809;48.632;11.576;2022-09-24T02:33:48;5.13;;;4.70;;
26034;SDS011;13809;48.632;11.576;2022-09-24T02:39:10;6.03;;;4.70;;
26034;SDS011;13809;48.632;11.576;2022-09-24T02:44:13;5.23;;;4.63;;
26034;SDS011;13809;48.632;11.576;2022-09-24T02:49:18;4.90;;;4.13;;
26034;SDS011;13809;48.632;11.576;2022-09-24T02:54:21;5.47;;;5.00;;
26034;SDS011;13809;48.632;11.576;2022-09-24T02:59:25;5.83;;;5.10;;
26034;SDS011;13809;48.632;11.576;2022-09-24T03:04:29;5.03;;;4.57;;
26034;SDS011;13809;48.632;11.576;2022-09-24T03:09:32;4.57;;;4.03;;
26034;SDS011;13809;48.632;11.576;2022-09-24T03:14:36;4.47;;;4.07;;
26034;SDS011;13809;48.632;11.576;2022-09-24T03:19:40;4.43;;;4.03;;
26034;SDS011;13809;48.632;11.576;2022-09-24T03:24:43;4.10;;;3.80;;
26034;SDS011;13809;48.632;11.576;2022-09-24T03:29:46;7.10;;;5.27;;
26034;SDS011;13809;48.632;11.576;2022-09-24T03:35:09;4.43;;;4.13;;
26034;SDS011;13809;48.632;11.576;2022-09-24T03:40:12;4.50;;;4.10;;
26034;SDS011;13809;48.632;11.576;2022-09-24T03:45:15;5.43;;;4.23;;
26034;SDS011;13809;48.632;11.576;2022-09-24T03:50:20;5.07;;;4.57;;
26034;SDS011;13809;48.632;11.576;2022-09-24T03:55:23;4.40;;;4.10;;
26034;SDS011;13809;48.632;11.576;2022-09-24T04:00:26;4.83;;;4.07;;
26034;SDS011;13809;48.632;11.576;2022-09-24T04:05:31;4.93;;;4.53;;
26034;SDS011;13809;48.632;11.576;2022-09-24T04:10:35;4.37;;;3.97;;
26034;SDS011;13809;48.632;11.576;2022-09-24T04:15:38;4.83;;;4.33;;
26034;SDS011;13809;48.632;11.576;2022-09-24T04:20:43;5.03;;;4.53;;
26034;SDS011;13809;48.632;11.576;2022-09-24T04:25:47;3.90;;;3.60;;
26034;SDS011;13809;48.632;11.576;2022-09-24T04:30:50;4.97;;;4.57;;
26034;SDS011;13809;48.632;11.576;2022-09-24T04:35:54;4.27;;;3.87;;
26034;SDS011;13809;48.632;11.576;2022-09-24T04:41:02;4.77;;;4.37;;
26034;SDS011;13809;48.632;11.576;2022-09-24T04:46:07;5.03;;;4.63;;
26034;SDS011;13809;48.632;11.576;2022-09-24T04:51:12;4.57;;;4.13;;
26034;SDS011;13809;48.632;11.576;2022-09-24T04:56:16;6.73;;;6.07;;
26034;SDS011;13809;48.632;11.576;2022-09-24T05:01:19;13.10;;;10.43;;
26034;SDS011;13809;48.632;11.576;2022-09-24T05:06:23;8.97;;;7.87;;
26034;SDS011;13809;48.632;11.576;2022-09-24T05:11:26;14.27;;;10.87;;
26034;SDS011;13809;48.632;11.576;2022-09-24T05:16:29;10.13;;;8.53;;
26034;SDS011;13809;48.632;11.576;2022-09-24T05:21:34;7.80;;;7.10;;
26034;SDS011;13809;48.632;11.576;2022-09-24T05:26:37;6.63;;;6.00;;
26034;SDS011;13809;48.632;11.576;2022-09-24T05:31:58;8.17;;;5.33;;
26034;SDS011;13809;48.632;11.576;2022-09-24T05:37:07;5.47;;;4.97;;
26034;SDS011;13809;48.632;11.576;2022-09-24T05:42:11;5.77;;;5.27;;
26034;SDS011;13809;48.632;11.576;2022-09-24T05:47:15;7.93;;;7.13;;
26034;SDS011;13809;48.632;11.576;2022-09-24T05:52:19;6.57;;;5.90;;
26034;SDS011;13809;48.632;11.576;2022-09-24T05:57:22;6.70;;;6.10;;
26034;SDS011;13809;48.632;11.576;2022-09-24T06:02:26;8.70;;;7.77;;
26034;SDS011;13809;48.632;11.576;2022-09-24T06:07:30;13.50;;;8.67;;
26034;SDS011;13809;48.632;11.576;2022-09-24T06:12:33;16.67;;;13.87;;
26034;SDS011;13809;48.632;11.576;2022-09-24T06:17:37;17.17;;;13.73;;
26034;SDS011;13809;48.632;11.576;2022-09-24T06:22:41;10.53;;;9.53;;
26034;SDS011;13809;48.632;11.576;2022-09-24T06:27:44;9.53;;;7.77;;
26034;SDS011;13809;48.632;11.576;2022-09-24T06:33:01;10.80;;;9.70;;
26034;SDS011;13809;48.632;11.576;2022-09-24T06:38:07;12.90;;;11.70;;
26034;SDS011;13809;48.632;11.576;2022-09-24T06:43:13;10.43;;;8.70;;
26034;SDS011;13809;48.632;11.576;2022-09-24T06:48:18;8.67;;;7.87;;
26034;SDS011;13809;48.632;11.576;2022-09-24T06:53:23;7.57;;;6.50;;
26034;SDS011;13809;48.632;11.576;2022-09-24T06:58:27;7.27;;;6.43;;
26034;SDS011;13809;48.632;11.576;2022-09-24T07:03:31;7.30;;;6.70;;
26034;SDS011;13809;48.632;11.576;2022-09-24T07:08:36;7.90;;;6.37;;
26034;SDS011;13809;48.632;11.576;2022-09-24T07:13:40;7.43;;;6.67;;
26034;SDS011;13809;48.632;11.576;2022-09-24T07:18:43;9.13;;;7.33;;
26034;SDS011;13809;48.632;11.576;2022-09-24T07:23:48;11.20;;;8.97;;
26034;SDS011;13809;48.632;11.576;2022-09-24T07:28:58;8.20;;;7.37;;
26034;SDS011;13809;48.632;11.576;2022-09-24T07:34:05;7.50;;;6.90;;
26034;SDS011;13809;48.632;11.576;2022-09-24T07:39:10;9.60;;;8.77;;
26034;SDS011;13809;48.632;11.576;2022-09-24T07:44:14;8.47;;;7.60;;
26034;SDS011;13809;48.632;11.576;2022-09-24T07:49:18;10.13;;;7.97;;
26034;SDS011;13809;48.632;11.576;2022-09-24T07:54:22;8.80;;;8.10;;
26034;SDS011;13809;48.632;11.576;2022-09-24T07:59:26;8.30;;;6.77;;
26034;SDS011;13809;48.632;11.576;2022-09-24T08:04:30;6.83;;;6.23;;
26034;SDS011;13809;48.632;11.576;2022-09-24T08:09:35;5.83;;;5.33;;
26034;SDS011;13809;48.632;11.576;2022-09-24T08:14:38;6.73;;;5.67;;
26034;SDS011;13809;48.632;11.576;2022-09-24T08:19:43;9.00;;;8.10;;
26034;SDS011;13809;48.632;11.576;2022-09-24T08:24:48;8.77;;;7.80;;
26034;SDS011;13809;48.632;11.576;2022-09-24T08:29:51;10.00;;;9.20;;
26034;SDS011;13809;48.632;11.576;2022-09-24T08:34:54;10.03;;;9.13;;
26034;SDS011;13809;48.632;11.576;2022-09-24T08:39:59;8.40;;;7.60;;
26034;SDS011;13809;48.632;11.576;2022-09-24T08:45:04;9.63;;;8.83;;
26034;SDS011;13809;48.632;11.576;2022-09-24T08:50:26;8.77;;;7.97;;
26034;SDS011;13809;48.632;11.576;2022-09-24T08:55:34;8.90;;;8.10;;
26034;SDS011;13809;48.632;11.576;2022-09-24T09:00:42;8.50;;;7.70;;
26034;SDS011;13809;48.632;11.576;2022-09-24T09:05:51;9.47;;;8.23;;
26034;SDS011;13809;48.632;11.576;2022-09-24T09:10:59;8.33;;;7.63;;
26034;SDS011;13809;48.632;11.576;2022-09-24T09:16:05;8.83;;;7.60;;
26034;SDS011;13809;48.632;11.576;2022-09-24T09:21:16;7.23;;;6.63;;
26034;SDS011;13809;48.632;11.576;2022-09-24T09:26:25;7.00;;;6.40;;
26034;SDS011;13809;48.632;11.576;2022-09-24T09:31:30;7.33;;;6.70;;
26034;SDS011;13809;48.632;11.576;2022-09-24T09:36:47;6.77;;;6.17;;
26034;SDS011;13809;48.632;11.576;2022-09-24T09:42:03;7.43;;;6.83;;
26034;SDS011;13809;48.632;11.576;2022-09-24T09:47:19;7.23;;;6.50;;
26034;SDS011;13809;48.632;11.576;2022-09-24T09:52:28;7.43;;;6.83;;
26034;SDS011;13809;48.632;11.576;2022-09-24T09:57:36;7.57;;;6.80;;
26034;SDS011;13809;48.632;11.576;2022-09-24T10:02:43;7.37;;;6.77;;
26034;SDS011;13809;48.632;11.576;2022-09-24T10:07:54;8.93;;;6.00;;
26034;SDS011;13809;48.632;11.576;2022-09-24T10:13:10;7.80;;;6.27;;
26034;SDS011;13809;48.632;11.576;2022-09-24T10:18:14;7.50;;;6.80;;
26034;SDS011;13809;48.632;11.576;2022-09-24T10:23:19;6.37;;;5.87;;
26034;SDS011;13809;48.632;11.576;2022-09-24T10:28:26;7.47;;;6.77;;
26034;SDS011;13809;48.632;11.576;2022-09-24T10:33:47;8.03;;;7.23;;
26034;SDS011;13809;48.632;11.576;2022-09-24T10:39:00;8.93;;;7.13;;
26034;SDS011;13809;48.632;11.576;2022-09-24T10:44:08;7.67;;;6.97;;
26034;SDS011;13809;48.632;11.576;2022-09-24T10:49:14;7.40;;;6.80;;
26034;SDS011;13809;48.632;11.576;2022-09-24T10:54:31;8.40;;;7.60;;
26034;SDS011;13809;48.632;11.576;2022-09-24T10:59:46;8.53;;;7.73;;
26034;SDS011;13809;48.632;11.576;2022-09-24T11:04:56;8.13;;;7.53;;
26034;SDS011;13809;48.632;11.576;2022-09-24T11:10:05;8.13;;;7.47;;
26034;SDS011;13809;48.632;11.576;2022-09-24T11:15:26;7.60;;;6.97;;
26034;SDS011;13809;48.632;11.576;2022-09-24T11:20:44;8.53;;;7.83;;
26034;SDS011;13809;48.632;11.576;2022-09-24T11:25:58;7.70;;;7.10;;
26034;SDS011;13809;48.632;11.576;2022-09-24T11:31:11;8.27;;;7.67;;
26034;SDS011;13809;48.632;11.576;2022-09-24T11:36:26;9.17;;;8.37;;
26034;SDS011;13809;48.632;11.576;2022-09-24T11:41:43;9.40;;;8.60;;
26034;SDS011;13809;48.632;11.576;2022-09-24T11:47:01;9.13;;;8.23;;
26034;SDS011;13809;48.632;11.576;2022-09-24T11:52:19;8.27;;;7.57;;
26034;SDS011;13809;48.632;11.576;2022-09-24T11:57:29;12.57;;;11.47;;
26034;SDS011;13809;48.632;11.576;2022-09-24T12:02:39;9.63;;;8.73;;
26034;SDS011;13809;48.632;11.576;2022-09-24T12:07:46;9.00;;;8.10;;
26034;SDS011;13809;48.632;11.576;2022-09-24T12:12:53;9.97;;;9.17;;
26034;SDS011;13809;48.632;11.576;2022-09-24T12:18:05;9.27;;;8.37;;
26034;SDS011;13809;48.632;11.576;2022-09-24T12:23:14;9.40;;;8.60;;
26034;SDS011;13809;48.632;11.576;2022-09-24T12:28:20;10.00;;;9.07;;
26034;SDS011;13809;48.632;11.576;2022-09-24T12:33:44;9.83;;;9.03;;
26034;SDS011;13809;48.632;11.576;2022-09-24T12:38:54;9.93;;;9.13;;
26034;SDS011;13809;48.632;11.576;2022-09-24T12:44:04;10.07;;;9.17;;
26034;SDS011;13809;48.632;11.576;2022-09-24T12:49:27;9.77;;;8.87;;
26034;SDS011;13809;48.632;11.576;2022-09-24T12:54:33;9.80;;;8.83;;
26034;SDS011;13809;48.632;11.576;2022-09-24T12:59:48;9.90;;;9.10;;
26034;SDS011;13809;48.632;11.576;2022-09-24T13:05:13;11.40;;;10.30;;
26034;SDS011;13809;48.632;11.576;2022-09-24T13:10:22;11.43;;;10.33;;
26034;SDS011;13809;48.632;11.576;2022-09-24T13:15:31;11.67;;;10.47;;
26034;SDS011;13809;48.632;11.576;2022-09-24T13:20:39;11.20;;;10.30;;
26034;SDS011;13809;48.632;11.576;2022-09-24T13:25:53;11.10;;;10.20;;
26034;SDS011;13809;48.632;11.576;2022-09-24T13:30:59;11.23;;;10.33;;
26034;SDS011;13809;48.632;11.576;2022-09-24T13:36:12;9.87;;;9.07;;
26034;SDS011;13809;48.632;11.576;2022-09-24T13:41:23;10.47;;;9.57;;
26034;SDS011;13809;48.632;11.576;2022-09-24T13:46:31;10.97;;;9.97;;
26034;SDS011;13809;48.632;11.576;2022-09-24T13:51:39;10.07;;;9.27;;
26034;SDS011;13809;48.632;11.576;2022-09-24T13:56:54;11.03;;;9.93;;
26034;SDS011;13809;48.632;11.576;2022-09-24T14:01:59;9.53;;;8.63;;
26034;SDS011;13809;48.632;11.576;2022-09-24T14:07:04;10.50;;;9.60;;
26034;SDS011;13809;48.632;11.576;2022-09-24T14:12:12;9.83;;;9.03;;
26034;SDS011;13809;48.632;11.576;2022-09-24T14:17:16;11.20;;;10.20;;
26034;SDS011;13809;48.632;11.576;2022-09-24T14:22:22;10.37;;;9.57;;
26034;SDS011;13809;48.632;11.576;2022-09-24T14:27:28;10.80;;;9.90;;
26034;SDS011;13809;48.632;11.576;2022-09-24T14:32:34;10.87;;;9.87;;
26034;SDS011;13809;48.632;11.576;2022-09-24T14:37:44;10.73;;;9.93;;
26034;SDS011;13809;48.632;11.576;2022-09-24T14:42:52;10.50;;;9.50;;
26034;SDS011;13809;48.632;11.576;2022-09-24T14:48:00;9.17;;;8.37;;
26034;SDS011;13809;48.632;11.576;2022-09-24T14:53:12;10.00;;;9.10;;
26034;SDS011;13809;48.632;11.576;2022-09-24T14:58:24;8.23;;;7.53;;
26034;SDS011;13809;48.632;11.576;2022-09-24T15:03:37;9.47;;;8.67;;
26034;SDS011;13809;48.632;11.576;2022-09-24T15:08:44;8.43;;;7.73;;
26034;SDS011;13809;48.632;11.576;2022-09-24T15:13:57;10.20;;;9.40;;
26034;SDS011;13809;48.632;11.576;2022-09-24T15:19:15;10.33;;;9.43;;
26034;SDS011;13809;48.632;11.576;2022-09-24T15:24:21;8.03;;;7.33;;
26034;SDS011;13809;48.632;11.576;2022-09-24T15:29:25;9.27;;;8.47;;
26034;SDS011;13809;48.632;11.576;2022-09-24T15:34:28;10.20;;;9.10;;
26034;SDS011;13809;48.632;11.576;2022-09-24T15:39:33;12.03;;;10.93;;
26034;SDS011;13809;48.632;11.576;2022-09-24T15:44:36;12.27;;;11.07;;
26034;SDS011;13809;48.632;11.576;2022-09-24T15:49:40;11.47;;;10.50;;
26034;SDS011;13809;48.632;11.576;2022-09-24T15:54:44;11.57;;;10.57;;
26034;SDS011;13809;48.632;11.576;2022-09-24T15:59:48;11.23;;;10.17;;
26034;SDS011;13809;48.632;11.576;2022-09-24T16:04:51;10.70;;;9.90;;
26034;SDS011;13809;48.632;11.576;2022-09-24T16:09:56;9.73;;;8.93;;
26034;SDS011;13809;48.632;11.576;2022-09-24T16:15:00;10.03;;;9.13;;
26034;SDS011;13809;48.632;11.576;2022-09-24T16:20:04;9.90;;;9.07;;
26034;SDS011;13809;48.632;11.576;2022-09-24T16:25:11;8.77;;;8.07;;
26034;SDS011;13809;48.632;11.576;2022-09-24T16:30:14;9.87;;;9.07;;
26034;SDS011;13809;48.632;11.576;2022-09-24T16:35:17;10.60;;;9.67;;
26034;SDS011;13809;48.632;11.576;2022-09-24T16:40:22;9.00;;;8.20;;
26034;SDS011;13809;48.632;11.576;2022-09-24T16:45:25;8.30;;;7.70;;
26034;SDS011;13809;48.632;11.576;2022-09-24T16:50:28;8.93;;;8.13;;
26034;SDS011;13809;48.632;11.576;2022-09-24T16:55:33;9.53;;;8.73;;
26034;SDS011;13809;48.632;11.576;2022-09-24T17:00:39;9.73;;;8.90;;
26034;SDS011;13809;48.632;11.576;2022-09-24T17:05:43;8.40;;;7.70;;
26034;SDS011;13809;48.632;11.576;2022-09-24T17:10:51;8.40;;;7.70;;
26034;SDS011;13809;48.632;11.576;2022-09-24T17:16:00;10.17;;;9.20;;
26034;SDS011;13809;48.632;11.576;2022-09-24T17:26:51;10.10;;;9.10;;
26034;SDS011;13809;48.632;11.576;2022-09-24T17:31:56;10.53;;;9.63;;
26034;SDS011;13809;48.632;11.576;2022-09-24T17:37:00;9.90;;;9.10;;
26034;SDS011;13809;48.632;11.576;2022-09-24T17:42:04;9.67;;;8.87;;
26034;SDS011;13809;48.632;11.576;2022-09-24T17:47:08;9.77;;;8.97;;
26034;SDS011;13809;48.632;11.576;2022-09-24T17:52:11;8.30;;;7.57;;
26034;SDS011;13809;48.632;11.576;2022-09-24T17:57:15;7.93;;;7.23;;
26034;SDS011;13809;48.632;11.576;2022-09-24T18:02:18;7.97;;;7.37;;
26034;SDS011;13809;48.632;11.576;2022-09-24T18:07:22;8.40;;;7.60;;
26034;SDS011;13809;48.632;11.576;2022-09-24T18:12:26;8.40;;;7.70;;
26034;SDS011;13809;48.632;11.576;2022-09-24T18:17:29;7.30;;;6.70;;
26034;SDS011;13809;48.632;11.576;2022-09-24T18:22:32;8.97;;;8.27;;
26034;SDS011;13809;48.632;11.576;2022-09-24T18:27:37;8.23;;;7.57;;
26034;SDS011;13809;48.632;11.576;2022-09-24T18:32:43;8.57;;;7.87;;
26034;SDS011;13809;48.632;11.576;2022-09-24T18:37:46;9.50;;;8.70;;
26034;SDS011;13809;48.632;11.576;2022-09-24T18:42:51;9.37;;;8.67;;
26034;SDS011;13809;48.632;11.576;2022-09-24T18:47:55;7.77;;;7.17;;
26034;SDS011;13809;48.632;11.576;2022-09-24T18:52:59;10.00;;;9.20;;
26034;SDS011;13809;48.632;11.576;2022-09-24T18:58:03;8.50;;;7.80;;
26034;SDS011;13809;48.632;11.576;2022-09-24T19:03:07;10.03;;;9.20;;
26034;SDS011;13809;48.632;11.576;2022-09-24T19:08:10;9.70;;;8.90;;
26034;SDS011;13809;48.632;11.576;2022-09-24T19:13:16;8.77;;;7.97;;
26034;SDS011;13809;48.632;11.576;2022-09-24T19:18:26;10.77;;;9.87;;
26034;SDS011;13809;48.632;11.576;2022-09-24T19:23:30;11.63;;;10.63;;
26034;SDS011;13809;48.632;11.576;2022-09-24T19:28:35;11.50;;;10.47;;
26034;SDS011;13809;48.632;11.576;2022-09-24T19:33:41;12.27;;;11.37;;
26034;SDS011;13809;48.632;11.576;2022-09-24T19:38:45;12.90;;;11.80;;
26034;SDS011;13809;48.632;11.576;2022-09-24T19:43:51;12.70;;;11.70;;
26034;SDS011;13809;48.632;11.576;2022-09-24T19:48:55;12.23;;;11.17;;
26034;SDS011;13809;48.632;11.576;2022-09-24T19:53:59;11.80;;;10.90;;
26034;SDS011;13809;48.632;11.576;2022-09-24T19:59:04;13.50;;;12.20;;
26034;SDS011;13809;48.632;11.576;2022-09-24T20:04:09;14.30;;;13.07;;
26034;SDS011;13809;48.632;11.576;2022-09-24T20:09:12;12.40;;;11.40;;
26034;SDS011;13809;48.632;11.576;2022-09-24T20:14:17;13.33;;;12.23;;
26034;SDS011;13809;48.632;11.576;2022-09-24T20:19:21;11.90;;;11.00;;
26034;SDS011;13809;48.632;11.576;2022-09-24T20:24:24;13.27;;;12.07;;
26034;SDS011;13809;48.632;11.576;2022-09-24T20:29:29;14.17;;;13.03;;
26034;SDS011;13809;48.632;11.576;2022-09-24T20:34:32;13.27;;;12.00;;
26034;SDS011;13809;48.632;11.576;2022-09-24T20:39:36;13.83;;;12.63;;
26034;SDS011;13809;48.632;11.576;2022-09-24T20:44:41;15.07;;;13.77;;
26034;SDS011;13809;48.632;11.576;2022-09-24T20:49:46;14.63;;;13.33;;
26034;SDS011;13809;48.632;11.576;2022-09-24T20:54:49;14.13;;;12.93;;
26034;SDS011;13809;48.632;11.576;2022-09-24T20:59:53;15.50;;;14.20;;
26034;SDS011;13809;48.632;11.576;2022-09-24T21:04:57;15.80;;;14.40;;
26034;SDS011;13809;48.632;11.576;2022-09-24T21:10:00;14.27;;;13.07;;
26034;SDS011;13809;48.632;11.576;2022-09-24T21:15:05;15.70;;;14.37;;
26034;SDS011;13809;48.632;11.576;2022-09-24T21:20:09;14.73;;;13.43;;
26034;SDS011;13809;48.632;11.576;2022-09-24T21:25:12;15.77;;;14.27;;
26034;SDS011;13809;48.632;11.576;2022-09-24T21:30:37;12.23;;;11.17;;
26034;SDS011;13809;48.632;11.576;2022-09-24T21:35:40;14.00;;;12.87;;
26034;SDS011;13809;48.632;11.576;2022-09-24T21:40:45;15.27;;;13.97;;
26034;SDS011;13809;48.632;11.576;2022-09-24T21:45:59;16.43;;;15.07;;
26034;SDS011;13809;48.632;11.576;2022-09-24T21:51:05;14.13;;;13.00;;
26034;SDS011;13809;48.632;11.576;2022-09-24T21:56:10;13.67;;;12.27;;
26034;SDS011;13809;48.632;11.576;2022-09-24T22:01:15;13.90;;;12.60;;
26034;SDS011;13809;48.632;11.576;2022-09-24T22:06:19;16.60;;;15.23;;
26034;SDS011;13809;48.632;11.576;2022-09-24T22:11:23;13.37;;;12.23;;
26034;SDS011;13809;48.632;11.576;2022-09-24T22:22:30;15.03;;;13.87;;
26034;SDS011;13809;48.632;11.576;2022-09-24T22:27:33;14.77;;;13.57;;
26034;SDS011;13809;48.632;11.576;2022-09-24T22:32:36;13.40;;;12.27;;
26034;SDS011;13809;48.632;11.576;2022-09-24T22:37:40;14.77;;;13.57;;
26034;SDS011;13809;48.632;11.576;2022-09-24T22:42:44;13.53;;;12.43;;
26034;SDS011;13809;48.632;11.576;2022-09-24T22:47:47;13.77;;;12.67;;
26034;SDS011;13809;48.632;11.576;2022-09-24T22:52:51;12.80;;;11.80;;
26034;SDS011;13809;48.632;11.576;2022-09-24T22:57:54;14.73;;;13.60;;
26034;SDS011;13809;48.632;11.576;2022-09-24T23:02:58;14.77;;;13.53;;
26034;SDS011;13809;48.632;11.576;2022-09-24T23:08:02;12.87;;;11.87;;
26034;SDS011;13809;48.632;11.576;2022-09-24T23:13:05;16.03;;;14.53;;
26034;SDS011;13809;48.632;11.576;2022-09-24T23:18:08;14.93;;;13.60;;
26034;SDS011;13809;48.632;11.576;2022-09-24T23:23:13;14.10;;;12.90;;
26034;SDS011;13809;48.632;11.576;2022-09-24T23:28:16;11.80;;;10.90;;
26034;SDS011;13809;48.632;11.576;2022-09-24T23:33:19;11.93;;;10.93;;
26034;SDS011;13809;48.632;11.576;2022-09-24T23:38:24;13.63;;;12.53;;
26034;SDS011;13809;48.632;11.576;2022-09-24T23:43:27;14.73;;;13.53;;
26034;SDS011;13809;48.632;11.576;2022-09-24T23:48:31;16.77;;;15.33;;
26034;SDS011;13809;48.632;11.576;2022-09-24T23:53:36;17.27;;;15.73;;
26034;SDS011;13809;48.632;11.576;2022-09-24T23:58:39;11.80;;;10.80;;
